createdAt,value
2023-05-12T00:00:02.674Z,94185.00
2023-05-12T00:01:02.703Z,94183.00
2023-05-12T00:02:02.765Z,94183.00
2023-05-12T00:03:02.856Z,94181.00
2023-05-12T00:04:03.077Z,94181.00
2023-05-12T00:05:03.054Z,94179.00
2023-05-12T00:06:03.021Z,94179.00
2023-05-12T00:07:03.069Z,94177.00
2023-05-12T00:08:03.164Z,94175.00
2023-05-12T00:09:03.187Z,94177.00
2023-05-12T00:10:03.254Z,94177.00
2023-05-12T00:11:03.307Z,94177.00
2023-05-12T00:12:03.356Z,94175.00
2023-05-12T00:13:03.438Z,94177.00
2023-05-12T00:14:03.467Z,94175.00
2023-05-12T00:15:03.517Z,94175.00
2023-05-12T00:16:03.650Z,94175.00
2023-05-12T00:17:03.653Z,94175.00
2023-05-12T00:18:03.781Z,94175.00
2023-05-12T00:19:03.875Z,94175.00
2023-05-12T00:20:03.816Z,94175.00
2023-05-12T00:21:03.892Z,94175.00
2023-05-12T00:22:03.939Z,94171.00
2023-05-12T00:23:04.004Z,94173.00
2023-05-12T00:24:04.040Z,94173.00
2023-05-12T00:25:04.097Z,94173.00
2023-05-12T00:26:04.278Z,94171.00
2023-05-12T00:27:04.208Z,94173.00
2023-05-12T00:28:04.316Z,94175.00
2023-05-12T00:29:04.345Z,94179.00
2023-05-12T00:30:04.403Z,94179.00
2023-05-12T00:31:04.482Z,94177.00
2023-05-12T00:32:04.624Z,94177.00
2023-05-12T00:33:04.630Z,94179.00
2023-05-12T00:34:04.635Z,94179.00
2023-05-12T00:35:04.697Z,94179.00
2023-05-12T00:36:04.790Z,94181.00
2023-05-12T00:37:04.852Z,94179.00
2023-05-12T00:38:04.864Z,94179.00
2023-05-12T00:39:04.931Z,94179.00
2023-05-12T00:40:05.006Z,94179.00
2023-05-12T00:41:05.077Z,94179.00
2023-05-12T00:42:05.122Z,94177.00
2023-05-12T00:43:05.149Z,94177.00
2023-05-12T00:44:05.258Z,94177.00
2023-05-12T00:45:05.276Z,94175.00
2023-05-12T00:46:05.418Z,94177.00
2023-05-12T00:47:05.378Z,94177.00
2023-05-12T00:48:05.477Z,94171.00
2023-05-12T00:49:05.498Z,94179.00
2023-05-12T00:50:05.534Z,94175.00
2023-05-12T00:51:05.612Z,94171.00
2023-05-12T00:52:05.649Z,94179.00
2023-05-12T00:53:05.705Z,94175.00
2023-05-12T00:54:05.777Z,94169.00
2023-05-12T00:55:05.823Z,94171.00
2023-05-12T00:56:05.850Z,94169.00
2023-05-12T00:57:05.903Z,94169.00
2023-05-12T00:58:05.960Z,94167.00
2023-05-12T00:59:06.052Z,94167.00
2023-05-12T01:00:06.058Z,94167.00
2023-05-12T01:01:06.144Z,94165.00
2023-05-12T01:02:06.221Z,94167.00
2023-05-12T01:03:06.356Z,94165.00
2023-05-12T01:04:06.288Z,94165.00
2023-05-12T01:05:06.363Z,94163.00
2023-05-12T01:06:06.411Z,94163.00
2023-05-12T01:07:06.450Z,94161.00
2023-05-12T01:08:06.546Z,94161.00
2023-05-12T01:09:06.556Z,94161.00
2023-05-12T01:10:06.618Z,94161.00
2023-05-12T01:11:06.686Z,94157.00
2023-05-12T01:12:06.709Z,94159.00
2023-05-12T01:13:06.775Z,94159.00
2023-05-12T01:14:06.822Z,94159.00
2023-05-12T01:15:06.886Z,94159.00
2023-05-12T01:16:06.969Z,94157.00
2023-05-12T01:17:07.060Z,94159.00
2023-05-12T01:18:07.100Z,94157.00
2023-05-12T01:19:07.160Z,94159.00
2023-05-12T01:20:07.154Z,94159.00
2023-05-12T01:21:07.212Z,94159.00
2023-05-12T01:22:07.257Z,94157.00
2023-05-12T01:23:07.330Z,94159.00
2023-05-12T01:24:07.376Z,94159.00
2023-05-12T01:25:07.409Z,94159.00
2023-05-12T01:26:07.466Z,94157.00
2023-05-12T01:27:07.532Z,94157.00
2023-05-12T01:28:07.568Z,94154.00
2023-05-12T01:29:07.642Z,94152.00
2023-05-12T01:30:07.672Z,94150.00
2023-05-12T01:31:07.795Z,94150.00
2023-05-12T01:32:07.788Z,94150.00
2023-05-12T01:33:07.848Z,94146.00
2023-05-12T01:34:07.902Z,94144.00
2023-05-12T01:35:07.993Z,94142.00
2023-05-12T01:36:08.004Z,94142.00
2023-05-12T01:37:08.070Z,94144.00
2023-05-12T01:38:08.118Z,94144.00
2023-05-12T01:39:08.170Z,94142.00
2023-05-12T01:40:08.226Z,94144.00
2023-05-12T01:41:08.290Z,94146.00
2023-05-12T01:42:08.320Z,94146.00
2023-05-12T01:43:08.392Z,94150.00
2023-05-12T01:44:08.443Z,94152.00
2023-05-12T01:45:08.490Z,94154.00
2023-05-12T01:46:08.616Z,94154.00
2023-05-12T01:47:08.607Z,94156.00
2023-05-12T01:48:08.660Z,94157.00
2023-05-12T01:49:08.703Z,94156.00
2023-05-12T01:50:08.800Z,94157.00
2023-05-12T01:51:08.875Z,94154.00
2023-05-12T01:52:08.909Z,94157.00
2023-05-12T01:53:08.931Z,94156.00
2023-05-12T01:54:08.983Z,94156.00
2023-05-12T01:55:09.034Z,94157.00
2023-05-12T01:56:09.093Z,94161.00
2023-05-12T01:57:09.162Z,94157.00
2023-05-12T01:58:09.196Z,94157.00
2023-05-12T01:59:09.308Z,94157.00
2023-05-12T02:00:09.339Z,94157.00
2023-05-12T02:01:09.349Z,94159.00
2023-05-12T02:02:09.464Z,94159.00
2023-05-12T02:03:09.577Z,94161.00
2023-05-12T02:04:09.643Z,94161.00
2023-05-12T02:05:09.580Z,94165.00
2023-05-12T02:06:09.625Z,94165.00
2023-05-12T02:07:09.669Z,94165.00
2023-05-12T02:08:09.725Z,94167.00
2023-05-12T02:09:09.806Z,94167.00
2023-05-12T02:10:09.846Z,94167.00
2023-05-12T02:11:09.915Z,94169.00
2023-05-12T02:12:09.953Z,94167.00
2023-05-12T02:13:10.032Z,94169.00
2023-05-12T02:14:10.092Z,94169.00
2023-05-12T02:15:10.144Z,94167.00
2023-05-12T02:16:10.266Z,94171.00
2023-05-12T02:17:10.260Z,94169.00
2023-05-12T02:18:10.465Z,94167.00
2023-05-12T02:19:10.491Z,94169.00
2023-05-12T02:20:10.437Z,94169.00
2023-05-12T02:21:10.485Z,94169.00
2023-05-12T02:22:10.548Z,94169.00
2023-05-12T02:23:10.595Z,94171.00
2023-05-12T02:24:11.595Z,94167.00
2023-05-12T02:25:10.711Z,94171.00
2023-05-12T02:26:10.759Z,94173.00
2023-05-12T02:27:10.915Z,94173.00
2023-05-12T02:28:10.897Z,94173.00
2023-05-12T02:29:10.941Z,94173.00
2023-05-12T02:30:11.013Z,94171.00
2023-05-12T02:31:11.056Z,94173.00
2023-05-12T02:32:11.429Z,94173.00
2023-05-12T02:33:11.210Z,94169.00
2023-05-12T02:34:11.236Z,94173.00
2023-05-12T02:35:11.295Z,94171.00
2023-05-12T02:36:11.372Z,94171.00
2023-05-12T02:37:11.409Z,94171.00
2023-05-12T02:38:11.476Z,94169.00
2023-05-12T02:39:11.590Z,94169.00
2023-05-12T02:40:11.588Z,94171.00
2023-05-12T02:41:11.641Z,94169.00
2023-05-12T02:42:11.723Z,94171.00
2023-05-12T02:43:11.776Z,94167.00
2023-05-12T02:44:11.836Z,94167.00
2023-05-12T02:45:11.913Z,94169.00
2023-05-12T02:46:12.014Z,94171.00
2023-05-12T02:47:12.013Z,94169.00
2023-05-12T02:48:12.089Z,94167.00
2023-05-12T02:49:12.130Z,94167.00
2023-05-12T02:50:12.214Z,94167.00
2023-05-12T02:51:12.263Z,94167.00
2023-05-12T02:52:12.310Z,94167.00
2023-05-12T02:53:12.369Z,94167.00
2023-05-12T02:54:12.452Z,94167.00
2023-05-12T02:55:12.474Z,94165.00
2023-05-12T02:56:13.311Z,94165.00
2023-05-12T02:57:12.606Z,94163.00
2023-05-12T02:58:12.680Z,94163.00
2023-05-12T02:59:12.757Z,94161.00
2023-05-12T03:00:12.804Z,94161.00
2023-05-12T03:01:12.896Z,94161.00
2023-05-12T03:02:13.007Z,94161.00
2023-05-12T03:03:13.043Z,94163.00
2023-05-12T03:04:13.061Z,94163.00
2023-05-12T03:05:13.116Z,94159.00
2023-05-12T03:06:13.166Z,94161.00
2023-05-12T03:07:13.221Z,94163.00
2023-05-12T03:08:13.272Z,94161.00
2023-05-12T03:09:13.356Z,94159.00
2023-05-12T03:10:13.396Z,94159.00
2023-05-12T03:11:13.471Z,94159.00
2023-05-12T03:12:13.542Z,94157.00
2023-05-12T03:13:13.592Z,94157.00
2023-05-12T03:14:13.634Z,94159.00
2023-05-12T03:15:13.698Z,94159.00
2023-05-12T03:16:13.787Z,94157.00
2023-05-12T03:17:13.924Z,94159.00
2023-05-12T03:18:13.886Z,94157.00
2023-05-12T03:19:13.959Z,94159.00
2023-05-12T03:20:14.040Z,94159.00
2023-05-12T03:21:14.097Z,94157.00
2023-05-12T03:22:14.147Z,94159.00
2023-05-12T03:23:14.198Z,94159.00
2023-05-12T03:24:14.249Z,94157.00
2023-05-12T03:25:14.307Z,94159.00
2023-05-12T03:26:14.361Z,94157.00
2023-05-12T03:27:14.438Z,94156.00
2023-05-12T03:28:14.481Z,94157.00
2023-05-12T03:29:14.534Z,94157.00
2023-05-12T03:30:14.603Z,94159.00
2023-05-12T03:31:14.676Z,94161.00
2023-05-12T03:32:14.756Z,94163.00
2023-05-12T03:33:14.849Z,94163.00
2023-05-12T03:34:14.891Z,94163.00
2023-05-12T03:35:14.936Z,94163.00
2023-05-12T03:36:14.979Z,94167.00
2023-05-12T03:37:15.052Z,94167.00
2023-05-12T03:38:15.125Z,94165.00
2023-05-12T03:39:15.172Z,94163.00
2023-05-12T03:40:15.215Z,94163.00
2023-05-12T03:41:15.289Z,94163.00
2023-05-12T03:42:15.358Z,94161.00
2023-05-12T03:43:15.445Z,94161.00
2023-05-12T03:44:15.519Z,94161.00
2023-05-12T03:45:15.553Z,94161.00
2023-05-12T03:46:15.697Z,94159.00
2023-05-12T03:47:15.764Z,94161.00
2023-05-12T03:48:15.741Z,94159.00
2023-05-12T03:49:15.777Z,94157.00
2023-05-12T03:50:15.860Z,94156.00
2023-05-12T03:51:15.912Z,94157.00
2023-05-12T03:52:15.991Z,94159.00
2023-05-12T03:53:16.022Z,94157.00
2023-05-12T03:54:16.077Z,94157.00
2023-05-12T03:55:16.132Z,94157.00
2023-05-12T03:56:16.193Z,94157.00
2023-05-12T03:57:16.250Z,94157.00
2023-05-12T03:58:16.316Z,94159.00
2023-05-12T03:59:16.365Z,94159.00
2023-05-12T04:00:16.522Z,94161.00
2023-05-12T04:01:16.476Z,94161.00
2023-05-12T04:02:16.567Z,94161.00
2023-05-12T04:03:16.655Z,94159.00
2023-05-12T04:04:16.704Z,94161.00
2023-05-12T04:05:16.712Z,94159.00
2023-05-12T04:06:16.772Z,94159.00
2023-05-12T04:07:16.850Z,94157.00
2023-05-12T04:08:16.901Z,94157.00
2023-05-12T04:09:16.940Z,94157.00
2023-05-12T04:10:17.086Z,94159.00
2023-05-12T04:11:17.057Z,94159.00
2023-05-12T04:12:17.154Z,94161.00
2023-05-12T04:13:17.255Z,94161.00
2023-05-12T04:14:17.271Z,94161.00
2023-05-12T04:15:17.321Z,94163.00
2023-05-12T04:16:17.442Z,94159.00
2023-05-12T04:17:17.568Z,94161.00
2023-05-12T04:18:17.472Z,94161.00
2023-05-12T04:19:17.560Z,94161.00
2023-05-12T04:20:17.745Z,94159.00
2023-05-12T04:21:17.663Z,94161.00
2023-05-12T04:22:17.752Z,94161.00
2023-05-12T04:23:17.792Z,94161.00
2023-05-12T04:24:17.852Z,94159.00
2023-05-12T04:25:17.928Z,94161.00
2023-05-12T04:26:17.986Z,94159.00
2023-05-12T04:27:18.060Z,94159.00
2023-05-12T04:28:18.086Z,94161.00
2023-05-12T04:29:18.167Z,94159.00
2023-05-12T04:30:18.331Z,94163.00
2023-05-12T04:31:18.361Z,94165.00
2023-05-12T04:32:18.351Z,94165.00
2023-05-12T04:33:18.418Z,94167.00
2023-05-12T04:34:18.441Z,94169.00
2023-05-12T04:35:18.583Z,94171.00
2023-05-12T04:36:18.568Z,94173.00
2023-05-12T04:37:18.626Z,94175.00
2023-05-12T04:38:18.691Z,94175.00
2023-05-12T04:39:18.764Z,94177.00
2023-05-12T04:40:19.111Z,94177.00
2023-05-12T04:41:18.882Z,94179.00
2023-05-12T04:42:18.944Z,94181.00
2023-05-12T04:44:19.010Z,94181.00
2023-05-12T04:45:19.204Z,94181.00
2023-05-12T04:46:18.980Z,94183.00
2023-05-12T04:47:18.980Z,94189.00
2023-05-12T04:48:18.952Z,94185.00
2023-05-12T04:49:18.938Z,94183.00
2023-05-12T04:50:18.952Z,94185.00
2023-05-12T04:51:18.950Z,94187.00
2023-05-12T04:52:18.948Z,94185.00
2023-05-12T04:53:18.955Z,94191.00
2023-05-12T04:54:18.905Z,94189.00
2023-05-12T04:55:19.108Z,94189.00
2023-05-12T04:56:18.911Z,94189.00
2023-05-12T04:57:18.961Z,94191.00
2023-05-12T04:58:18.885Z,94195.00
2023-05-12T04:59:18.902Z,94197.00
2023-05-12T05:00:18.878Z,94195.00
2023-05-12T05:01:18.899Z,94197.00
2023-05-12T05:02:18.901Z,94195.00
2023-05-12T05:03:18.997Z,94195.00
2023-05-12T05:04:18.866Z,94199.00
2023-05-12T05:05:19.226Z,94199.00
2023-05-12T05:06:18.838Z,94201.00
2023-05-12T05:07:18.850Z,94199.00
2023-05-12T05:08:18.838Z,94199.00
2023-05-12T05:09:18.822Z,94199.00
2023-05-12T05:10:18.824Z,94201.00
2023-05-12T05:11:18.815Z,94199.00
2023-05-12T05:12:18.823Z,94201.00
2023-05-12T05:13:18.800Z,94199.00
2023-05-12T05:14:18.780Z,94203.00
2023-05-12T05:15:18.984Z,94203.00
2023-05-12T05:16:18.845Z,94201.00
2023-05-12T05:17:18.764Z,94201.00
2023-05-12T05:18:19.454Z,94203.00
2023-05-12T05:19:22.594Z,94199.00
2023-05-12T05:20:19.956Z,94201.00
2023-05-12T05:21:18.867Z,94203.00
2023-05-12T05:22:18.854Z,94203.00
2023-05-12T05:23:18.891Z,94203.00
2023-05-12T05:24:18.830Z,94203.00
2023-05-12T05:25:19.025Z,94211.00
2023-05-12T05:26:18.834Z,94211.00
2023-05-12T05:27:18.814Z,94211.00
2023-05-12T05:28:18.818Z,94209.00
2023-05-12T05:29:18.823Z,94203.00
2023-05-12T05:30:18.880Z,94207.00
2023-05-12T05:31:19.079Z,94205.00
2023-05-12T05:32:19.054Z,94205.00
2023-05-12T05:33:19.093Z,94203.00
2023-05-12T05:34:19.182Z,94203.00
2023-05-12T05:35:19.473Z,94205.00
2023-05-12T05:36:19.259Z,94207.00
2023-05-12T05:37:19.308Z,94203.00
2023-05-12T05:38:19.271Z,94207.00
2023-05-12T05:39:19.318Z,94203.00
2023-05-12T05:40:19.406Z,94207.00
2023-05-12T05:41:19.417Z,94205.00
2023-05-12T05:42:19.421Z,94212.00
2023-05-12T05:43:19.433Z,94207.00
2023-05-12T05:44:19.427Z,94209.00
2023-05-12T05:45:19.670Z,94212.00
2023-05-12T05:46:19.550Z,94211.00
2023-05-12T05:47:19.898Z,94211.00
2023-05-12T05:48:19.554Z,94209.00
2023-05-12T05:49:19.659Z,94209.00
2023-05-12T05:50:19.699Z,94207.00
2023-05-12T05:51:19.750Z,94199.00
2023-05-12T05:52:19.896Z,94203.00
2023-05-12T05:53:19.852Z,94199.00
2023-05-12T05:54:19.842Z,94203.00
2023-05-12T05:55:20.067Z,94203.00
2023-05-12T05:56:19.880Z,94203.00
2023-05-12T05:57:20.001Z,94203.00
2023-05-12T05:58:20.184Z,94201.00
2023-05-12T05:59:20.066Z,94201.00
2023-05-12T06:00:20.078Z,94203.00
2023-05-12T06:01:20.048Z,94203.00
2023-05-12T06:02:20.142Z,94203.00
2023-05-12T06:03:20.249Z,94203.00
2023-05-12T06:04:20.335Z,94199.00
2023-05-12T06:05:20.449Z,94197.00
2023-05-12T06:06:20.205Z,94201.00
2023-05-12T06:07:22.086Z,94199.00
2023-05-12T06:08:20.332Z,94201.00
2023-05-12T06:09:20.360Z,94199.00
2023-05-12T06:10:20.625Z,94201.00
2023-05-12T06:11:20.466Z,94199.00
2023-05-12T06:12:20.529Z,94201.00
2023-05-12T06:13:20.660Z,94199.00
2023-05-12T06:14:20.640Z,94197.00
2023-05-12T06:15:20.942Z,94199.00
2023-05-12T06:16:20.831Z,94197.00
2023-05-12T06:17:20.883Z,94197.00
2023-05-12T06:18:20.967Z,94197.00
2023-05-12T06:19:20.955Z,94199.00
2023-05-12T06:20:21.008Z,94203.00
2023-05-12T06:21:21.069Z,94203.00
2023-05-12T06:22:21.169Z,94201.00
2023-05-12T06:23:21.252Z,94203.00
2023-05-12T06:24:21.270Z,94201.00
2023-05-12T06:25:22.118Z,94203.00
2023-05-12T06:26:21.396Z,94201.00
2023-05-12T06:27:21.841Z,94201.00
2023-05-12T06:28:22.850Z,94205.00
2023-05-12T06:29:21.532Z,94207.00
2023-05-12T06:30:21.592Z,94205.00
2023-05-12T06:31:21.733Z,94209.00
2023-05-12T06:32:21.936Z,94211.00
2023-05-12T06:33:21.880Z,94209.00
2023-05-12T06:34:21.805Z,94209.00
2023-05-12T06:35:21.968Z,94211.00
2023-05-12T06:36:21.867Z,94209.00
2023-05-12T06:37:21.937Z,94209.00
2023-05-12T06:38:22.025Z,94209.00
2023-05-12T06:39:22.288Z,94211.00
2023-05-12T06:40:22.174Z,94209.00
2023-05-12T06:41:22.072Z,94211.00
2023-05-12T06:42:22.186Z,94209.00
2023-05-12T06:43:22.174Z,94212.00
2023-05-12T06:44:22.251Z,94209.00
2023-05-12T06:45:22.326Z,94209.00
2023-05-12T06:46:22.397Z,94209.00
2023-05-12T06:47:22.316Z,94211.00
2023-05-12T06:48:22.437Z,94207.00
2023-05-12T06:49:22.319Z,94211.00
2023-05-12T06:50:22.334Z,94211.00
2023-05-12T06:51:22.353Z,94211.00
2023-05-12T06:52:22.397Z,94207.00
2023-05-12T06:53:24.108Z,94205.00
2023-05-12T06:54:22.372Z,94207.00
2023-05-12T06:55:22.747Z,94207.00
2023-05-12T06:56:22.383Z,94207.00
2023-05-12T06:57:22.366Z,94205.00
2023-05-12T06:58:22.400Z,94205.00
2023-05-12T06:59:22.310Z,94207.00
2023-05-12T07:00:22.312Z,94205.00
2023-05-12T07:01:22.358Z,94205.00
2023-05-12T07:02:22.307Z,94203.00
2023-05-12T07:03:22.295Z,94205.00
2023-05-12T07:04:22.274Z,94203.00
2023-05-12T07:05:22.845Z,94203.00
2023-05-12T07:06:22.272Z,94203.00
2023-05-12T07:07:22.237Z,94205.00
2023-05-12T07:08:22.237Z,94203.00
2023-05-12T07:09:22.264Z,94203.00
2023-05-12T07:10:22.328Z,94205.00
2023-05-12T07:11:22.219Z,94205.00
2023-05-12T07:12:22.230Z,94205.00
2023-05-12T07:13:22.233Z,94203.00
2023-05-12T07:14:22.201Z,94201.00
2023-05-12T07:15:22.412Z,94199.00
2023-05-12T07:16:22.232Z,94195.00
2023-05-12T07:17:22.253Z,94197.00
2023-05-12T07:18:22.458Z,94197.00
2023-05-12T07:19:22.242Z,94193.00
2023-05-12T07:20:22.179Z,94191.00
2023-05-12T07:21:22.213Z,94187.00
2023-05-12T07:22:22.156Z,94189.00
2023-05-12T07:23:22.153Z,94185.00
2023-05-12T07:24:22.143Z,94185.00
2023-05-12T07:25:22.498Z,94183.00
2023-05-12T07:26:22.205Z,94181.00
2023-05-12T07:27:22.927Z,94177.00
2023-05-12T07:28:22.473Z,94179.00
2023-05-12T07:29:22.129Z,94177.00
2023-05-12T07:30:22.100Z,94177.00
2023-05-12T07:31:24.889Z,94177.00
2023-05-12T07:32:22.289Z,94175.00
2023-05-12T07:33:23.920Z,94177.00
2023-05-12T07:34:22.091Z,94171.00
2023-05-12T07:35:22.369Z,94173.00
2023-05-12T07:36:22.232Z,94175.00
2023-05-12T07:37:22.087Z,94173.00
2023-05-12T07:38:22.063Z,94169.00
2023-05-12T07:39:22.059Z,94171.00
2023-05-12T07:40:23.037Z,94165.00
2023-05-12T07:41:22.020Z,94167.00
2023-05-12T07:42:22.065Z,94167.00
2023-05-12T07:43:22.030Z,94167.00
2023-05-12T07:44:22.025Z,94169.00
2023-05-12T07:45:22.095Z,94167.00
2023-05-12T07:46:22.036Z,94163.00
2023-05-12T07:47:22.032Z,94167.00
2023-05-12T07:48:22.395Z,94167.00
2023-05-12T07:49:21.954Z,94163.00
2023-05-12T07:50:22.024Z,94163.00
2023-05-12T07:51:21.967Z,94161.00
2023-05-12T07:52:21.968Z,94165.00
2023-05-12T07:53:22.412Z,94167.00
2023-05-12T07:54:21.927Z,94169.00
2023-05-12T07:55:22.178Z,94169.00
2023-05-12T07:56:22.016Z,94171.00
2023-05-12T07:57:21.953Z,94173.00
2023-05-12T07:58:22.367Z,94169.00
2023-05-12T07:59:22.087Z,94171.00
2023-05-12T08:00:21.941Z,94171.00
2023-05-12T08:01:21.951Z,94167.00
2023-05-12T08:02:22.000Z,94167.00
2023-05-12T08:03:22.404Z,94169.00
2023-05-12T08:04:21.964Z,94167.00
2023-05-12T08:05:22.121Z,94167.00
2023-05-12T08:06:21.962Z,94165.00
2023-05-12T08:07:22.034Z,94167.00
2023-05-12T08:08:21.985Z,94163.00
2023-05-12T08:09:21.986Z,94163.00
2023-05-12T08:10:22.042Z,94159.00
2023-05-12T08:11:22.055Z,94163.00
2023-05-12T08:12:22.297Z,94165.00
2023-05-12T08:13:22.146Z,94161.00
2023-05-12T08:14:22.092Z,94163.00
2023-05-12T08:15:22.522Z,94163.00
2023-05-12T08:16:22.152Z,94163.00
2023-05-12T08:17:22.125Z,94161.00
2023-05-12T08:18:22.951Z,94165.00
2023-05-12T08:19:22.182Z,94163.00
2023-05-12T08:20:22.273Z,94163.00
2023-05-12T08:21:22.256Z,94163.00
2023-05-12T08:22:22.290Z,94163.00
2023-05-12T08:23:22.331Z,94165.00
2023-05-12T08:24:22.360Z,94165.00
2023-05-12T08:25:22.445Z,94163.00
2023-05-12T08:26:22.444Z,94161.00
2023-05-12T08:27:22.418Z,94159.00
2023-05-12T08:28:22.448Z,94157.00
2023-05-12T08:29:22.410Z,94161.00
2023-05-12T08:30:22.597Z,94159.00
2023-05-12T08:31:22.550Z,94157.00
2023-05-12T08:32:22.665Z,94157.00
2023-05-12T08:33:22.693Z,94157.00
2023-05-12T08:34:22.590Z,94157.00
2023-05-12T08:35:22.910Z,94154.00
2023-05-12T08:36:22.778Z,94152.00
2023-05-12T08:37:22.737Z,94157.00
2023-05-12T08:38:22.939Z,94154.00
2023-05-12T08:39:22.777Z,94154.00
2023-05-12T08:40:22.867Z,94154.00
2023-05-12T08:41:22.833Z,94154.00
2023-05-12T08:42:22.841Z,94156.00
2023-05-12T08:43:23.459Z,94157.00
2023-05-12T08:44:23.052Z,94156.00
2023-05-12T08:45:22.973Z,94156.00
2023-05-12T08:46:23.927Z,94154.00
2023-05-12T08:47:23.024Z,94159.00
2023-05-12T08:48:23.049Z,94159.00
2023-05-12T08:49:23.055Z,94159.00
2023-05-12T08:50:23.182Z,94156.00
2023-05-12T08:51:23.067Z,94154.00
2023-05-12T08:52:23.128Z,94156.00
2023-05-12T08:53:23.374Z,94159.00
2023-05-12T08:54:23.269Z,94156.00
2023-05-12T08:55:26.286Z,94154.00
2023-05-12T08:57:23.321Z,94150.00
2023-05-12T08:58:33.960Z,94148.00
2023-05-12T08:59:24.290Z,94154.00
2023-05-12T09:00:23.369Z,94154.00
2023-05-12T09:01:23.460Z,94152.00
2023-05-12T09:02:23.536Z,94154.00
2023-05-12T09:03:23.423Z,94154.00
2023-05-12T09:04:23.412Z,94156.00
2023-05-12T09:05:23.564Z,94150.00
2023-05-12T09:06:23.236Z,94154.00
2023-05-12T09:07:23.233Z,94152.00
2023-05-12T09:08:23.310Z,94152.00
2023-05-12T09:09:23.333Z,94154.00
2023-05-12T09:10:34.534Z,94152.00
2023-05-12T09:11:24.358Z,94154.00
2023-05-12T09:12:23.320Z,94154.00
2023-05-12T09:13:23.375Z,94157.00
2023-05-12T09:14:23.365Z,94150.00
2023-05-12T09:15:23.432Z,94152.00
2023-05-12T09:16:23.639Z,94148.00
2023-05-12T09:17:23.386Z,94148.00
2023-05-12T09:18:23.902Z,94146.00
2023-05-12T09:19:23.306Z,94148.00
2023-05-12T09:20:30.922Z,94152.00
2023-05-12T09:21:24.362Z,94146.00
2023-05-12T09:22:23.271Z,94144.00
2023-05-12T09:23:23.424Z,94146.00
2023-05-12T09:24:23.377Z,94150.00
2023-05-12T09:25:23.360Z,94148.00
2023-05-12T09:26:23.261Z,94142.00
2023-05-12T09:27:23.278Z,94142.00
2023-05-12T09:28:23.266Z,94144.00
2023-05-12T09:29:30.806Z,94146.00
2023-05-12T09:30:24.257Z,94144.00
2023-05-12T09:31:23.242Z,94148.00
2023-05-12T09:32:23.197Z,94148.00
2023-05-12T09:33:23.222Z,94146.00
2023-05-12T09:34:23.204Z,94148.00
2023-05-12T09:35:23.176Z,94146.00
2023-05-12T09:36:23.175Z,94144.00
2023-05-12T09:37:23.169Z,94144.00
2023-05-12T09:38:23.146Z,94146.00
2023-05-12T09:39:23.391Z,94146.00
2023-05-12T09:40:23.137Z,94146.00
2023-05-12T09:41:23.166Z,94146.00
2023-05-12T09:42:23.177Z,94142.00
2023-05-12T09:43:23.202Z,94142.00
2023-05-12T09:44:23.257Z,94138.00
2023-05-12T09:45:23.264Z,94140.00
2023-05-12T09:46:23.302Z,94138.00
2023-05-12T09:47:23.426Z,94146.00
2023-05-12T09:48:24.064Z,94144.00
2023-05-12T09:49:23.384Z,94150.00
2023-05-12T09:50:23.433Z,94146.00
2023-05-12T09:51:23.418Z,94146.00
2023-05-12T09:52:23.441Z,94142.00
2023-05-12T09:53:23.507Z,94142.00
2023-05-12T09:54:23.895Z,94140.00
2023-05-12T09:55:23.546Z,94142.00
2023-05-12T09:56:23.652Z,94142.00
2023-05-12T09:57:23.639Z,94136.00
2023-05-12T09:58:23.658Z,94136.00
2023-05-12T09:59:23.705Z,94134.00
2023-05-12T10:00:38.537Z,94136.00
2023-05-12T10:01:24.849Z,94134.00
2023-05-12T10:02:23.961Z,94122.00
2023-05-12T10:03:23.752Z,94124.00
2023-05-12T10:04:23.747Z,94124.00
2023-05-12T10:05:23.720Z,94120.00
2023-05-12T10:06:23.744Z,94118.00
2023-05-12T10:07:23.683Z,94118.00
2023-05-12T10:08:23.715Z,94120.00
2023-05-12T10:09:23.906Z,94118.00
2023-05-12T10:10:23.688Z,94116.00
2023-05-12T10:11:23.679Z,94116.00
2023-05-12T10:12:23.704Z,94114.00
2023-05-12T10:13:23.716Z,94116.00
2023-05-12T10:14:23.877Z,94114.00
2023-05-12T10:15:23.732Z,94118.00
2023-05-12T10:16:23.836Z,94118.00
2023-05-12T10:17:23.826Z,94116.00
2023-05-12T10:18:23.852Z,94118.00
2023-05-12T10:19:23.812Z,94124.00
2023-05-12T10:20:23.824Z,94124.00
2023-05-12T10:21:23.902Z,94116.00
2023-05-12T10:22:23.854Z,94112.00
2023-05-12T10:23:23.993Z,94111.00
2023-05-12T10:24:24.456Z,94112.00
2023-05-12T10:25:24.044Z,94111.00
2023-05-12T10:26:23.961Z,94109.00
2023-05-12T10:27:24.028Z,94109.00
2023-05-12T10:28:24.041Z,94105.00
2023-05-12T10:29:24.052Z,94109.00
2023-05-12T10:30:24.289Z,94112.00
2023-05-12T10:31:24.143Z,94109.00
2023-05-12T10:32:24.163Z,94109.00
2023-05-12T10:33:24.198Z,94105.00
2023-05-12T10:34:24.423Z,94105.00
2023-05-12T10:35:24.263Z,94107.00
2023-05-12T10:36:24.343Z,94107.00
2023-05-12T10:37:24.409Z,94107.00
2023-05-12T10:38:24.372Z,94107.00
2023-05-12T10:39:24.392Z,94109.00
2023-05-12T10:40:24.413Z,94111.00
2023-05-12T10:41:24.435Z,94109.00
2023-05-12T10:42:24.407Z,94105.00
2023-05-12T10:43:24.388Z,94109.00
2023-05-12T10:44:24.384Z,94109.00
2023-05-12T10:45:24.422Z,94105.00
2023-05-12T10:46:24.560Z,94111.00
2023-05-12T10:47:24.589Z,94111.00
2023-05-12T10:48:24.655Z,94103.00
2023-05-12T10:49:24.717Z,94107.00
2023-05-12T10:50:24.751Z,94107.00
2023-05-12T10:51:24.846Z,94101.00
2023-05-12T10:52:24.861Z,94101.00
2023-05-12T10:53:26.196Z,94101.00
2023-05-12T10:54:25.403Z,94101.00
2023-05-12T10:55:25.151Z,94099.00
2023-05-12T10:56:25.506Z,94101.00
2023-05-12T10:57:25.039Z,94101.00
2023-05-12T10:58:25.215Z,94101.00
2023-05-12T10:59:25.268Z,94097.00
2023-05-12T11:00:25.570Z,94099.00
2023-05-12T11:01:25.277Z,94095.00
2023-05-12T11:02:25.973Z,94097.00
2023-05-12T11:03:25.521Z,94097.00
2023-05-12T11:04:25.045Z,94099.00
2023-05-12T11:05:25.143Z,94099.00
2023-05-12T11:06:25.578Z,94101.00
2023-05-12T11:07:24.993Z,94099.00
2023-05-12T11:08:25.091Z,94099.00
2023-05-12T11:09:25.132Z,94099.00
2023-05-12T11:10:24.901Z,94099.00
2023-05-12T11:11:25.125Z,94097.00
2023-05-12T11:12:24.849Z,94097.00
2023-05-12T11:13:24.803Z,94095.00
2023-05-12T11:14:25.419Z,94095.00
2023-05-12T11:15:25.407Z,94089.00
2023-05-12T11:16:24.757Z,94089.00
2023-05-12T11:17:24.791Z,94091.00
2023-05-12T11:18:24.750Z,94093.00
2023-05-12T11:19:24.913Z,94089.00
2023-05-12T11:20:24.734Z,94093.00
2023-05-12T11:21:24.782Z,94089.00
2023-05-12T11:22:24.788Z,94085.00
2023-05-12T11:23:24.863Z,94087.00
2023-05-12T11:24:24.914Z,94087.00
2023-05-12T11:25:25.402Z,94081.00
2023-05-12T11:26:24.952Z,94083.00
2023-05-12T11:27:25.003Z,94081.00
2023-05-12T11:28:25.043Z,94079.00
2023-05-12T11:29:25.073Z,94079.00
2023-05-12T11:30:25.160Z,94075.00
2023-05-12T11:31:25.190Z,94075.00
2023-05-12T11:32:25.256Z,94075.00
2023-05-12T11:33:25.255Z,94073.00
2023-05-12T11:34:25.349Z,94073.00
2023-05-12T11:35:25.403Z,94067.00
2023-05-12T11:36:25.437Z,94071.00
2023-05-12T11:37:25.495Z,94069.00
2023-05-12T11:38:25.529Z,94071.00
2023-05-12T11:39:25.587Z,94071.00
2023-05-12T11:40:25.724Z,94071.00
2023-05-12T11:41:25.736Z,94071.00
2023-05-12T11:42:25.999Z,94071.00
2023-05-12T11:43:25.849Z,94071.00
2023-05-12T11:44:25.966Z,94071.00
2023-05-12T11:45:26.016Z,94067.00
2023-05-12T11:46:26.086Z,94067.00